createdAt,value
2022-09-23T00:00:42.899Z,1.00
2022-09-23T00:03:22.721Z,1.10
2022-09-23T00:06:04.527Z,1.02
2022-09-23T00:08:38.423Z,1.30
2022-09-23T00:11:12.806Z,1.23
2022-09-23T00:13:47.315Z,1.23
2022-09-23T00:16:22.572Z,1.33
2022-09-23T00:21:35.836Z,1.63
2022-09-23T00:24:09.749Z,1.58
2022-09-23T00:26:43.577Z,1.45
2022-09-23T00:29:17.431Z,1.10
2022-09-23T00:31:51.296Z,1.52
2022-09-23T00:34:30.727Z,0.98
2022-09-23T00:37:04.572Z,1.05
2022-09-23T00:39:38.684Z,1.10
2022-09-23T00:42:12.895Z,1.60
2022-09-23T00:44:49.627Z,1.00
2022-09-23T00:47:28.507Z,0.98
2022-09-23T00:50:12.031Z,1.50
2022-09-23T00:52:45.952Z,1.20
2022-09-23T00:55:22.091Z,1.30
2022-09-23T00:57:55.976Z,1.20
2022-09-23T01:00:32.823Z,1.20
2022-09-23T01:03:06.710Z,1.25
2022-09-23T01:05:45.993Z,1.10
2022-09-23T01:08:19.936Z,1.10
2022-09-23T01:10:57.444Z,1.08
2022-09-23T01:13:35.553Z,1.00
2022-09-23T01:16:12.334Z,1.13
2022-09-23T01:18:49.901Z,1.20
2022-09-23T01:21:37.280Z,1.25
2022-09-23T01:24:45.175Z,1.20
2022-09-23T01:27:23.801Z,1.08
2022-09-23T01:30:16.286Z,1.10
2022-09-23T01:33:15.646Z,1.42
2022-09-23T01:36:09.300Z,1.27
2022-09-23T01:38:46.728Z,1.38
2022-09-23T01:41:41.145Z,1.42
2022-09-23T01:44:16.623Z,0.90
2022-09-23T01:46:55.234Z,1.13
2022-09-23T01:49:37.291Z,1.30
2022-09-23T01:52:15.754Z,1.10
2022-09-23T01:54:51.718Z,1.20
2022-09-23T01:57:28.151Z,1.40
2022-09-23T02:00:06.223Z,1.15
2022-09-23T02:02:41.824Z,1.10
2022-09-23T02:05:24.441Z,1.10
2022-09-23T02:08:01.346Z,1.40
2022-09-23T02:10:37.346Z,1.20
2022-09-23T02:13:14.892Z,1.17
2022-09-23T02:15:50.170Z,1.00
2022-09-23T02:18:25.864Z,1.25
2022-09-23T02:21:06.808Z,1.20
2022-09-23T02:23:42.607Z,1.23
2022-09-23T02:26:21.005Z,1.48
2022-09-23T02:29:03.017Z,1.27
2022-09-23T02:31:38.872Z,0.85
2022-09-23T02:34:25.789Z,0.90
2022-09-23T02:37:10.811Z,1.00
2022-09-23T02:39:49.012Z,1.20
2022-09-23T02:42:25.633Z,1.65
2022-09-23T02:44:59.989Z,1.30
2022-09-23T02:47:35.851Z,0.93
2022-09-23T02:50:10.513Z,0.98
2022-09-23T02:52:49.709Z,1.08
2022-09-23T02:55:24.656Z,1.02
2022-09-23T02:57:58.486Z,1.10
2022-09-23T03:00:32.779Z,1.13
2022-09-23T03:03:12.867Z,1.00
2022-09-23T03:05:49.380Z,1.15
2022-09-23T03:08:42.144Z,1.25
2022-09-23T03:11:18.081Z,1.10
2022-09-23T03:14:00.221Z,1.02
2022-09-23T03:16:38.944Z,1.08
2022-09-23T03:19:23.385Z,0.95
2022-09-23T03:22:01.883Z,1.17
2022-09-23T03:24:41.554Z,1.30
2022-09-23T03:27:18.833Z,1.42
2022-09-23T03:29:54.528Z,0.77
2022-09-23T03:32:29.471Z,0.93
2022-09-23T03:35:04.519Z,1.25
2022-09-23T03:37:40.403Z,1.10
2022-09-23T03:40:21.661Z,1.00
2022-09-23T03:45:42.307Z,1.05
2022-09-23T03:48:11.314Z,1.05
2022-09-23T03:50:45.605Z,1.02
2022-09-23T03:53:15.659Z,1.00
2022-09-23T03:58:20.521Z,1.02
2022-09-23T04:00:55.792Z,0.90
2022-09-23T04:03:24.443Z,1.20
2022-09-23T04:08:32.333Z,0.93
2022-09-23T04:13:30.335Z,1.65
2022-09-23T04:21:21.360Z,1.33
2022-09-23T04:29:34.295Z,1.10
2022-09-23T04:32:08.441Z,1.30
2022-09-23T04:34:42.252Z,1.10
2022-09-23T04:37:16.101Z,1.27
2022-09-23T04:39:50.012Z,0.95
2022-09-23T04:42:21.378Z,1.30
2022-09-23T04:45:00.567Z,1.52
2022-09-23T04:47:34.464Z,1.60
2022-09-23T04:55:28.720Z,2.17
2022-09-23T04:57:58.622Z,1.33
2022-09-23T05:03:01.823Z,1.35
2022-09-23T05:08:03.825Z,1.60
2022-09-23T05:13:04.677Z,1.55
2022-09-23T05:20:57.835Z,1.58
2022-09-23T05:26:20.764Z,1.27
2022-09-23T05:28:50.913Z,1.50
2022-09-23T05:33:52.808Z,1.60
2022-09-23T05:36:24.743Z,1.63
2022-09-23T05:41:26.869Z,1.63
2022-09-23T05:51:53.763Z,1.80
2022-09-23T05:59:43.439Z,1.60
2022-09-23T06:02:17.427Z,1.85
2022-09-23T06:04:51.518Z,1.85
2022-09-23T06:07:32.637Z,1.90
2022-09-23T06:10:08.437Z,3.67
2022-09-23T06:12:43.525Z,2.42
2022-09-23T06:15:18.525Z,1.92
2022-09-23T06:17:52.443Z,1.83
2022-09-23T06:20:26.322Z,1.60
2022-09-23T06:23:11.680Z,2.13
2022-09-23T06:25:45.563Z,1.92
2022-09-23T06:28:19.877Z,1.65
2022-09-23T06:30:53.767Z,1.60
2022-09-23T06:33:36.058Z,1.67
2022-09-23T06:36:22.181Z,1.25
2022-09-23T06:39:10.283Z,1.70
2022-09-23T06:41:44.370Z,1.60
2022-09-23T06:44:18.430Z,1.52
2022-09-23T06:46:52.410Z,1.65
2022-09-23T06:49:26.622Z,1.58
2022-09-23T06:52:00.622Z,1.65
2022-09-23T06:54:39.908Z,1.50
2022-09-23T06:57:14.556Z,1.25
2022-09-23T06:59:48.472Z,1.45
2022-09-23T07:02:23.838Z,1.75
2022-09-23T07:04:58.205Z,1.55
2022-09-23T07:07:32.397Z,1.20
2022-09-23T07:10:12.126Z,1.40
2022-09-23T07:12:46.030Z,1.20
2022-09-23T07:15:19.889Z,1.50
2022-09-23T07:17:53.759Z,1.63
2022-09-23T07:20:27.590Z,1.20
2022-09-23T07:23:01.540Z,1.60
2022-09-23T07:25:40.824Z,1.30
2022-09-23T07:28:14.799Z,1.30
2022-09-23T07:30:58.423Z,1.35
2022-09-23T07:33:35.710Z,1.08
2022-09-23T07:36:13.352Z,1.45
2022-09-23T07:38:47.278Z,1.20
2022-09-23T07:41:27.074Z,1.50
2022-09-23T07:44:01.665Z,1.40
2022-09-23T07:46:37.200Z,1.48
2022-09-23T07:49:11.563Z,1.40
2022-09-23T07:51:46.980Z,1.60
2022-09-23T07:54:21.952Z,1.40
2022-09-23T07:57:01.039Z,1.40
2022-09-23T07:59:35.659Z,1.77
2022-09-23T08:02:09.568Z,1.67
2022-09-23T08:04:43.450Z,1.63
2022-09-23T08:07:18.209Z,1.20
2022-09-23T08:09:52.139Z,1.67
2022-09-23T08:12:31.332Z,1.67
2022-09-23T08:15:05.584Z,1.48
2022-09-23T08:17:39.506Z,2.08
2022-09-23T08:20:34.744Z,1.15
2022-09-23T08:23:08.576Z,1.63
2022-09-23T08:25:45.547Z,1.63
2022-09-23T08:28:26.259Z,1.52
2022-09-23T08:31:00.191Z,1.50
2022-09-23T08:33:34.154Z,2.38
2022-09-23T08:36:09.010Z,1.60
2022-09-23T08:38:43.066Z,1.98
2022-09-23T08:41:30.595Z,1.40
2022-09-23T08:44:13.005Z,1.75
2022-09-23T08:46:48.471Z,1.90
2022-09-23T08:49:28.843Z,1.52
2022-09-23T08:52:02.782Z,1.65
2022-09-23T08:54:37.053Z,1.58
2022-09-23T08:57:11.194Z,1.52
2022-09-23T08:59:50.634Z,1.73
2022-09-23T09:02:25.939Z,1.63
2022-09-23T09:07:37.704Z,1.80
2022-09-23T09:10:17.096Z,1.85
2022-09-23T09:12:51.598Z,1.80
2022-09-23T09:15:32.069Z,1.55
2022-09-23T09:18:11.824Z,1.58
2022-09-23T09:20:47.411Z,1.60
2022-09-23T09:23:26.268Z,1.65
2022-09-23T09:26:00.479Z,3.80
2022-09-23T09:28:36.853Z,1.92
2022-09-23T09:31:26.151Z,1.83
2022-09-23T09:34:04.093Z,1.30
2022-09-23T09:36:43.257Z,1.60
2022-09-23T09:39:20.067Z,1.60
2022-09-23T09:42:01.415Z,1.38
2022-09-23T09:44:40.391Z,1.90
2022-09-23T09:47:33.121Z,1.80
2022-09-23T09:50:12.051Z,1.58
2022-09-23T09:52:45.957Z,1.88
2022-09-23T09:55:30.652Z,1.45
2022-09-23T09:58:06.690Z,1.40
2022-09-23T10:00:49.024Z,1.40
2022-09-23T10:03:44.044Z,1.45
2022-09-23T10:06:24.696Z,1.50
2022-09-23T10:09:15.158Z,1.58
2022-09-23T10:11:49.134Z,1.80
2022-09-23T10:14:24.794Z,1.40
2022-09-23T10:17:09.097Z,1.55
2022-09-23T10:19:51.918Z,1.30
2022-09-23T10:22:30.357Z,1.40
2022-09-23T10:25:06.837Z,1.73
2022-09-23T10:27:41.553Z,1.60
2022-09-23T10:30:28.165Z,1.80
2022-09-23T10:33:02.330Z,1.30
2022-09-23T10:35:41.888Z,1.60
2022-09-23T10:38:15.897Z,1.50
2022-09-23T10:41:03.739Z,1.30
2022-09-23T10:43:53.933Z,1.35
2022-09-23T10:46:47.130Z,1.35
2022-09-23T10:49:38.653Z,1.40
2022-09-23T10:52:33.315Z,1.75
2022-09-23T10:55:13.635Z,1.70
2022-09-23T10:57:58.807Z,1.67
2022-09-23T11:00:35.680Z,1.42
2022-09-23T11:03:25.520Z,1.45
2022-09-23T11:06:05.820Z,1.30
2022-09-23T11:08:54.532Z,1.50
2022-09-23T11:11:36.886Z,1.40
2022-09-23T11:14:22.697Z,1.23
2022-09-23T11:20:01.409Z,1.38
2022-09-23T11:22:43.364Z,1.38
2022-09-23T11:25:47.755Z,1.35
2022-09-23T11:28:51.698Z,1.35
2022-09-23T11:31:33.178Z,1.45
2022-09-23T11:34:15.249Z,1.60
2022-09-23T11:36:51.067Z,1.48
2022-09-23T11:39:27.406Z,1.77
2022-09-23T11:42:10.287Z,1.60
2022-09-23T11:44:45.663Z,1.23
2022-09-23T11:47:22.997Z,1.75
2022-09-23T11:49:58.196Z,1.70
2022-09-23T11:52:34.342Z,1.35
2022-09-23T11:55:20.221Z,1.17
2022-09-23T11:58:02.876Z,1.50
2022-09-23T12:00:38.356Z,1.30
2022-09-23T12:03:16.786Z,1.38
2022-09-23T12:05:52.701Z,1.48
2022-09-23T12:08:31.034Z,1.20
2022-09-23T12:11:12.197Z,1.50
2022-09-23T12:13:54.966Z,1.45
2022-09-23T12:17:19.275Z,1.75
2022-09-23T12:20:14.252Z,1.55
2022-09-23T12:22:55.095Z,1.85
2022-09-23T12:25:49.132Z,1.50
2022-09-23T12:28:25.631Z,1.98
2022-09-23T12:31:06.284Z,1.45
2022-09-23T12:33:40.369Z,1.77
2022-09-23T12:36:15.046Z,1.48
2022-09-23T12:38:54.567Z,1.75
2022-09-23T12:41:34.237Z,1.40
2022-09-23T12:44:22.157Z,1.83
2022-09-23T12:47:16.151Z,1.63
2022-09-23T12:49:50.575Z,1.48
2022-09-23T12:52:34.090Z,1.70
2022-09-23T12:55:33.260Z,1.75
2022-09-23T12:58:07.483Z,1.80
2022-09-23T13:00:42.094Z,1.33
2022-09-23T13:03:42.947Z,1.52
2022-09-23T13:06:30.631Z,1.45
2022-09-23T13:09:04.428Z,1.70
2022-09-23T13:11:38.222Z,1.80
2022-09-23T13:14:12.422Z,1.55
2022-09-23T13:16:48.757Z,1.42
2022-09-23T13:19:55.893Z,1.60
2022-09-23T13:22:48.864Z,1.67
2022-09-23T13:25:24.370Z,1.40
2022-09-23T13:27:59.374Z,2.03
2022-09-23T13:30:33.328Z,2.00
2022-09-23T13:33:11.262Z,1.67
2022-09-23T13:35:51.684Z,1.70
2022-09-23T13:38:27.452Z,2.08
2022-09-23T13:41:02.310Z,1.52
2022-09-23T13:43:41.811Z,1.70
2022-09-23T13:46:17.063Z,1.77
2022-09-23T13:51:32.319Z,2.65
2022-09-23T13:54:07.319Z,2.10
2022-09-23T13:56:41.705Z,1.65
2022-09-23T13:59:26.757Z,2.23
2022-09-23T14:02:10.192Z,2.17
2022-09-23T14:04:44.191Z,1.75
2022-09-23T14:07:25.408Z,2.00
2022-09-23T14:10:00.773Z,2.25
2022-09-23T14:15:08.393Z,1.52
2022-09-23T14:17:42.504Z,1.83
2022-09-23T14:20:26.236Z,2.10
2022-09-23T14:23:21.325Z,2.05
2022-09-23T14:25:55.283Z,1.98
2022-09-23T14:28:30.032Z,1.70
2022-09-23T14:31:04.125Z,1.80
2022-09-23T14:33:39.123Z,1.90
2022-09-23T14:36:34.098Z,2.00
2022-09-23T14:39:09.790Z,2.33
2022-09-23T14:41:44.937Z,2.25
2022-09-23T14:44:24.729Z,1.83
2022-09-23T14:47:12.445Z,2.05
2022-09-23T14:50:06.905Z,1.77
2022-09-23T14:52:40.919Z,1.63
2022-09-23T14:55:25.178Z,2.03
2022-09-23T14:58:08.357Z,1.85
2022-09-23T15:00:42.303Z,1.88
2022-09-23T15:03:22.055Z,1.90
2022-09-23T15:05:58.832Z,1.83
2022-09-23T15:08:34.142Z,1.60
2022-09-23T15:13:49.520Z,2.20
2022-09-23T15:16:23.635Z,2.10
2022-09-23T15:19:01.760Z,1.70
2022-09-23T15:21:41.968Z,1.75
2022-09-23T15:24:40.892Z,2.05
2022-09-23T15:27:33.876Z,1.92
2022-09-23T15:30:20.640Z,2.58
2022-09-23T15:32:54.897Z,2.33
2022-09-23T15:35:29.632Z,2.20
2022-09-23T15:38:04.873Z,1.95
2022-09-23T15:43:23.668Z,2.20
2022-09-23T15:45:58.309Z,1.95
2022-09-23T15:48:33.905Z,2.17
2022-09-23T15:51:10.935Z,2.65
2022-09-23T15:53:45.142Z,3.92
2022-09-23T15:56:19.052Z,2.72
2022-09-23T15:58:58.158Z,2.40
2022-09-23T16:01:33.337Z,1.85
2022-09-23T16:06:44.423Z,2.10
2022-09-23T16:09:19.074Z,1.90
2022-09-23T16:11:54.022Z,2.47
2022-09-23T16:14:33.272Z,2.88
2022-09-23T16:17:08.707Z,2.30
2022-09-23T16:19:42.584Z,3.00
2022-09-23T16:22:17.062Z,2.40
2022-09-23T16:24:50.924Z,2.20
2022-09-23T16:27:24.752Z,2.17
2022-09-23T16:30:04.267Z,1.90
2022-09-23T16:32:38.092Z,2.25
2022-09-23T16:35:13.156Z,2.20
2022-09-23T16:37:48.242Z,2.20
2022-09-23T16:43:06.441Z,2.55
2022-09-23T16:45:46.786Z,2.00
2022-09-23T16:50:56.669Z,2.42
2022-09-23T16:53:30.826Z,2.33
2022-09-23T16:56:04.774Z,2.35
2022-09-23T16:58:38.600Z,3.25
2022-09-23T17:01:32.665Z,1.90
2022-09-23T17:04:07.250Z,3.33
2022-09-23T17:06:41.124Z,2.70
2022-09-23T17:09:15.480Z,2.80
2022-09-23T17:11:50.067Z,3.97
2022-09-23T17:14:24.203Z,3.17
2022-09-23T17:17:06.389Z,4.05
2022-09-23T17:19:42.665Z,3.30
2022-09-23T17:22:16.497Z,3.15
2022-09-23T17:24:50.358Z,2.15
2022-09-23T17:27:25.917Z,2.60
2022-09-23T17:29:59.822Z,2.70
2022-09-23T17:32:39.277Z,3.10
2022-09-23T17:35:14.056Z,2.60
2022-09-23T17:37:48.655Z,3.42
2022-09-23T17:40:22.827Z,3.72
2022-09-23T17:42:56.680Z,2.20
2022-09-23T17:45:31.369Z,2.50
2022-09-23T17:48:10.596Z,2.33
2022-09-23T17:50:44.431Z,1.95
2022-09-23T17:53:18.254Z,2.15
2022-09-23T17:56:00.222Z,2.03
2022-09-23T17:58:34.733Z,2.20
2022-09-23T18:01:08.798Z,2.10
2022-09-23T18:03:49.463Z,1.95
2022-09-23T18:06:24.022Z,2.08
2022-09-23T18:08:58.211Z,2.05
2022-09-23T18:11:32.917Z,2.45
2022-09-23T18:14:07.886Z,2.30
2022-09-23T18:16:42.666Z,2.30
2022-09-23T18:19:24.236Z,2.40
2022-09-23T18:21:59.070Z,2.83
2022-09-23T18:24:34.019Z,2.50
2022-09-23T18:27:08.454Z,2.80
2022-09-23T18:29:42.327Z,3.15
2022-09-23T18:32:16.443Z,3.72
2022-09-23T18:34:48.543Z,2.83
2022-09-23T18:42:27.110Z,2.47
2022-09-23T18:53:05.921Z,2.10
2022-09-23T18:55:34.543Z,2.63
2022-09-23T18:58:08.784Z,2.05
2022-09-23T19:00:43.234Z,2.10
2022-09-23T19:03:17.166Z,2.17
2022-09-23T19:05:50.952Z,1.95
2022-09-23T19:08:30.067Z,1.95
2022-09-23T19:11:04.333Z,2.15
2022-09-23T19:13:38.323Z,2.05
2022-09-23T19:16:13.269Z,1.90
2022-09-23T19:18:47.794Z,2.10
2022-09-23T19:21:22.186Z,2.08
2022-09-23T19:24:04.417Z,1.60
2022-09-23T19:26:39.278Z,1.80
2022-09-23T19:29:14.315Z,1.95
2022-09-23T19:31:48.393Z,2.05
2022-09-23T19:34:24.763Z,1.63
2022-09-23T19:36:59.020Z,1.83
2022-09-23T19:39:38.614Z,1.73
2022-09-23T19:42:12.512Z,1.95
2022-09-23T19:44:46.517Z,1.98
2022-09-23T19:47:20.837Z,2.10
2022-09-23T19:49:55.261Z,2.10
2022-09-23T19:52:29.232Z,2.47
2022-09-23T19:55:08.436Z,2.50
2022-09-23T19:57:42.528Z,1.85
2022-09-23T20:00:17.472Z,1.92
2022-09-23T20:02:51.297Z,1.98
2022-09-23T20:05:25.266Z,1.80
2022-09-23T20:08:00.073Z,2.20
2022-09-23T20:10:39.296Z,1.98
2022-09-23T20:13:15.653Z,2.33
2022-09-23T20:15:49.852Z,2.20
2022-09-23T20:18:23.796Z,2.45
2022-09-23T20:21:01.296Z,2.28
2022-09-23T20:23:35.602Z,2.67
2022-09-23T20:26:28.126Z,2.42
2022-09-23T20:29:02.402Z,2.30
2022-09-23T20:31:36.257Z,3.03
2022-09-23T20:34:11.559Z,2.25
2022-09-23T20:39:19.502Z,2.22
2022-09-23T20:41:59.390Z,2.38
2022-09-23T20:44:34.201Z,2.28
2022-09-23T20:47:08.147Z,2.70
2022-09-23T20:49:43.905Z,2.15
2022-09-23T20:52:17.808Z,2.58
2022-09-23T20:54:52.707Z,2.67
2022-09-23T20:57:32.501Z,2.53
2022-09-23T21:00:08.616Z,2.78
2022-09-23T21:02:43.347Z,2.42
2022-09-23T21:05:19.109Z,2.28
2022-09-23T21:07:53.477Z,3.20
2022-09-23T21:10:27.466Z,2.87
2022-09-23T21:13:08.105Z,3.28
2022-09-23T21:15:42.906Z,2.65
2022-09-23T21:18:21.726Z,2.53
2022-09-23T21:21:05.667Z,2.63
2022-09-23T21:23:40.338Z,2.95
2022-09-23T21:26:15.067Z,2.60
2022-09-23T21:28:55.530Z,3.78
2022-09-23T21:31:30.543Z,2.83
2022-09-23T21:34:05.588Z,2.80
2022-09-23T21:36:40.504Z,2.75
2022-09-23T21:39:14.650Z,3.25
2022-09-23T21:41:48.565Z,3.05
2022-09-23T21:44:28.254Z,6.85
2022-09-23T21:47:02.307Z,3.08
2022-09-23T21:49:36.317Z,2.60
2022-09-23T21:52:10.255Z,2.47
2022-09-23T21:54:44.110Z,3.22
2022-09-23T21:57:18.045Z,3.45
2022-09-23T21:59:57.471Z,3.08
2022-09-23T22:02:34.835Z,2.90
2022-09-23T22:05:08.677Z,2.60
2022-09-23T22:07:43.531Z,2.95
2022-09-23T22:10:17.590Z,2.75
2022-09-23T22:12:53.888Z,3.00
2022-09-23T22:15:34.618Z,2.78
2022-09-23T22:18:09.040Z,2.80
2022-09-23T22:20:43.026Z,2.60
2022-09-23T22:23:16.807Z,2.95
2022-09-23T22:25:53.237Z,3.00
2022-09-23T22:28:40.271Z,3.20
2022-09-23T22:31:35.356Z,3.28
2022-09-23T22:34:25.454Z,2.60
2022-09-23T22:37:03.937Z,3.53
2022-09-23T22:39:37.943Z,3.92
2022-09-23T22:42:12.164Z,3.95
2022-09-23T22:44:46.684Z,3.30
2022-09-23T22:47:26.295Z,3.35
2022-09-23T22:50:00.867Z,3.83
2022-09-23T22:52:34.851Z,4.25
2022-09-23T22:55:08.995Z,3.92
2022-09-23T22:57:42.942Z,3.63
2022-09-23T23:00:18.624Z,3.13
2022-09-23T23:08:03.259Z,3.58
2022-09-23T23:10:37.229Z,3.38
2022-09-23T23:13:11.754Z,4.57
2022-09-23T23:15:45.730Z,4.03
2022-09-23T23:18:19.602Z,4.22
2022-09-23T23:20:53.427Z,4.18
2022-09-23T23:23:32.565Z,4.38
2022-09-23T23:33:55.200Z,4.85
2022-09-23T23:39:24.666Z,5.15
2022-09-23T23:42:00.131Z,5.25
2022-09-23T23:47:09.442Z,4.67
2022-09-23T23:49:43.277Z,5.68
2022-09-23T23:52:17.084Z,5.05
2022-09-23T23:54:56.295Z,4.90
2022-09-23T23:57:30.609Z,4.47
